createdAt,value
2019-03-31T00:00:13.865Z,33.67
2019-03-31T00:02:43.415Z,40.43
2019-03-31T00:05:13.013Z,37.10
2019-03-31T00:07:42.529Z,36.23
2019-03-31T00:10:11.837Z,30.20
2019-03-31T00:12:41.238Z,33.57
2019-03-31T00:15:10.940Z,30.30
2019-03-31T00:17:40.860Z,33.97
2019-03-31T00:20:10.272Z,29.57
2019-03-31T00:22:39.765Z,29.57
2019-03-31T00:25:09.183Z,30.57
2019-03-31T00:27:38.682Z,34.87
2019-03-31T00:30:08.517Z,29.70
2019-03-31T00:32:38.055Z,28.43
2019-03-31T00:35:07.716Z,26.50
2019-03-31T00:37:37.216Z,24.70
2019-03-31T00:40:07.961Z,27.37
2019-03-31T00:42:37.458Z,28.40
2019-03-31T00:45:07.796Z,29.00
2019-03-31T00:47:37.306Z,28.53
2019-03-31T00:50:07.833Z,30.13
2019-03-31T00:52:37.220Z,35.47
2019-03-31T00:55:07.243Z,35.00
2019-03-31T00:57:36.748Z,29.77
2019-03-31T01:00:09.653Z,34.33
2019-03-31T01:02:38.945Z,35.23
2019-03-31T01:05:08.650Z,34.13
2019-03-31T01:07:38.155Z,32.23
2019-03-31T01:10:08.061Z,37.60
2019-03-31T01:12:37.715Z,30.73
2019-03-31T01:15:11.458Z,31.53
2019-03-31T01:17:40.989Z,32.13
2019-03-31T01:20:10.596Z,29.67
2019-03-31T01:22:40.054Z,29.30
2019-03-31T01:25:09.622Z,30.70
2019-03-31T01:27:39.320Z,27.77
2019-03-31T01:30:10.775Z,29.80
2019-03-31T01:32:40.384Z,33.60
2019-03-31T01:35:10.721Z,37.03
2019-03-31T01:37:40.128Z,38.40
2019-03-31T01:40:09.930Z,37.87
2019-03-31T01:42:39.435Z,38.90
2019-03-31T01:45:10.139Z,35.97
2019-03-31T01:47:39.687Z,36.07
2019-03-31T01:50:11.743Z,35.47
2019-03-31T01:52:41.155Z,29.83
2019-03-31T01:55:13.635Z,29.83
2019-03-31T01:57:43.122Z,30.57
2019-03-31T02:00:20.634Z,30.33
2019-03-31T02:02:50.125Z,30.57
2019-03-31T02:05:19.641Z,26.70
2019-03-31T02:07:49.050Z,30.13
2019-03-31T02:10:18.863Z,29.33
2019-03-31T02:12:49.380Z,27.47
2019-03-31T02:15:18.797Z,34.27
2019-03-31T02:17:48.097Z,28.77
2019-03-31T02:20:17.596Z,26.73
2019-03-31T02:22:47.111Z,29.90
2019-03-31T02:25:16.714Z,29.23
2019-03-31T02:27:46.211Z,27.53
2019-03-31T02:30:16.643Z,25.87
2019-03-31T02:32:46.065Z,28.00
2019-03-31T02:35:15.764Z,27.87
2019-03-31T02:37:45.173Z,26.67
2019-03-31T02:40:14.669Z,29.77
2019-03-31T02:42:43.982Z,28.27
2019-03-31T02:45:13.610Z,30.20
2019-03-31T02:47:43.084Z,27.93
2019-03-31T02:50:15.469Z,26.53
2019-03-31T02:52:44.877Z,27.80
2019-03-31T02:55:14.264Z,25.43
2019-03-31T02:57:43.988Z,28.80
2019-03-31T03:00:13.798Z,25.30
2019-03-31T03:02:43.408Z,24.33
2019-03-31T03:05:19.778Z,23.30
2019-03-31T03:07:46.116Z,26.20
2019-03-31T03:10:15.309Z,26.60
2019-03-31T03:12:48.592Z,24.77
2019-03-31T03:15:32.760Z,24.87
2019-03-31T03:18:02.055Z,26.77
2019-03-31T03:20:31.976Z,23.20
2019-03-31T03:23:01.473Z,25.27
2019-03-31T03:25:30.973Z,23.90
2019-03-31T03:28:00.285Z,22.47
2019-03-31T03:30:29.931Z,23.70
2019-03-31T03:33:14.788Z,28.00
2019-03-31T03:35:30.546Z,25.57
2019-03-31T03:38:00.037Z,23.97
2019-03-31T03:40:29.266Z,21.93
2019-03-31T03:42:58.962Z,24.43
2019-03-31T03:45:28.162Z,26.73
2019-03-31T03:47:57.654Z,26.20
2019-03-31T03:50:26.965Z,25.17
2019-03-31T03:52:56.773Z,25.37
2019-03-31T03:55:26.281Z,26.37
2019-03-31T03:57:55.784Z,27.20
2019-03-31T04:00:25.198Z,28.80
2019-03-31T04:02:54.698Z,27.17
2019-03-31T04:05:24.211Z,24.63
2019-03-31T04:07:53.713Z,28.40
2019-03-31T04:10:45.650Z,24.03
2019-03-31T04:13:15.364Z,25.57
2019-03-31T04:15:44.854Z,25.50
2019-03-31T04:18:14.169Z,23.60
2019-03-31T04:20:43.493Z,30.07
2019-03-31T04:23:12.968Z,25.50
2019-03-31T04:25:42.177Z,26.57
2019-03-31T04:28:11.583Z,26.37
2019-03-31T04:33:16.566Z,26.40
2019-03-31T04:35:45.776Z,25.67
2019-03-31T04:38:15.270Z,26.13
2019-03-31T04:40:45.086Z,27.90
2019-03-31T04:43:14.592Z,25.20
2019-03-31T04:45:43.803Z,24.07
2019-03-31T04:48:13.302Z,25.97
2019-03-31T04:50:42.812Z,28.27
2019-03-31T04:53:12.045Z,26.23
2019-03-31T04:55:41.191Z,24.77
2019-03-31T04:58:10.706Z,24.60
2019-03-31T05:00:39.960Z,26.67
2019-03-31T05:03:09.359Z,25.23
2019-03-31T05:05:38.803Z,26.10
2019-03-31T05:08:08.171Z,25.43
2019-03-31T05:10:37.565Z,26.53
2019-03-31T05:13:07.178Z,27.40
2019-03-31T05:15:36.363Z,27.80
2019-03-31T05:18:05.537Z,28.17
2019-03-31T05:20:35.044Z,23.00
2019-03-31T05:23:04.346Z,27.17
2019-03-31T05:25:34.671Z,26.87
2019-03-31T05:28:04.064Z,29.37
2019-03-31T05:30:33.578Z,26.07
2019-03-31T05:33:02.985Z,27.37
2019-03-31T05:35:32.390Z,25.50
2019-03-31T05:38:02.089Z,28.63
2019-03-31T05:40:31.505Z,26.50
2019-03-31T05:43:00.996Z,26.80
2019-03-31T05:45:30.421Z,28.50
2019-03-31T05:47:59.804Z,23.67
2019-03-31T05:50:29.128Z,26.33
2019-03-31T05:52:58.422Z,25.47
2019-03-31T05:55:27.723Z,26.63
2019-03-31T05:57:57.113Z,26.07
2019-03-31T06:00:42.905Z,25.93
2019-03-31T06:03:12.311Z,27.47
2019-03-31T06:05:41.727Z,25.43
2019-03-31T06:08:11.115Z,24.60
2019-03-31T06:10:40.622Z,29.00
2019-03-31T06:13:09.937Z,26.40
2019-03-31T06:15:39.326Z,26.47
2019-03-31T06:18:08.537Z,25.83
2019-03-31T06:20:37.719Z,24.57
2019-03-31T06:23:07.039Z,29.00
2019-03-31T06:25:36.356Z,25.87
2019-03-31T06:28:05.835Z,28.00
2019-03-31T06:30:35.346Z,28.13
2019-03-31T06:33:04.657Z,29.13
2019-03-31T06:35:34.184Z,29.10
2019-03-31T06:38:03.773Z,29.57
2019-03-31T06:40:35.337Z,31.03
2019-03-31T06:43:04.831Z,27.63
2019-03-31T06:45:34.339Z,29.23
2019-03-31T06:48:03.939Z,36.60
2019-03-31T06:50:33.144Z,35.17
2019-03-31T06:53:02.645Z,45.23
2019-03-31T06:55:32.149Z,53.20
2019-03-31T06:58:01.435Z,58.50
2019-03-31T07:00:30.673Z,55.87
2019-03-31T07:03:00.363Z,57.50
2019-03-31T07:05:29.762Z,52.57
2019-03-31T07:07:59.284Z,53.90
2019-03-31T07:10:28.667Z,51.43
2019-03-31T07:12:59.816Z,53.07
2019-03-31T07:15:29.231Z,54.10
2019-03-31T07:17:58.730Z,54.43
2019-03-31T07:20:27.890Z,54.07
2019-03-31T07:22:57.123Z,53.20
2019-03-31T07:25:26.748Z,46.73
2019-03-31T07:27:57.868Z,53.43
2019-03-31T07:30:27.535Z,55.33
2019-03-31T07:32:57.211Z,52.23
2019-03-31T07:35:26.734Z,56.47
2019-03-31T07:37:56.335Z,54.93
2019-03-31T07:40:25.629Z,56.80
2019-03-31T07:42:55.179Z,61.73
2019-03-31T07:45:25.149Z,51.73
2019-03-31T07:47:54.650Z,57.47
2019-03-31T07:50:24.060Z,55.03
2019-03-31T07:52:54.168Z,55.03
2019-03-31T07:55:24.505Z,54.07
2019-03-31T07:57:55.046Z,52.80
2019-03-31T08:00:25.061Z,54.93
2019-03-31T08:02:54.460Z,52.37
2019-03-31T08:05:32.890Z,54.20
2019-03-31T08:07:55.906Z,51.87
2019-03-31T08:10:25.947Z,52.77
2019-03-31T08:12:55.440Z,57.03
2019-03-31T08:15:25.063Z,52.37
2019-03-31T08:17:54.276Z,49.07
2019-03-31T08:20:24.297Z,49.30
2019-03-31T08:22:56.874Z,50.07
2019-03-31T08:25:24.424Z,53.47
2019-03-31T08:27:53.925Z,52.70
2019-03-31T08:30:23.228Z,48.30
2019-03-31T08:32:52.723Z,53.83
2019-03-31T08:35:22.235Z,50.20
2019-03-31T08:37:51.737Z,52.33
2019-03-31T08:40:22.688Z,52.90
2019-03-31T08:42:51.991Z,55.13
2019-03-31T08:45:21.290Z,54.03
2019-03-31T08:47:52.369Z,52.43
2019-03-31T08:50:21.943Z,54.03
2019-03-31T08:52:51.327Z,55.37
2019-03-31T08:55:20.548Z,52.57
2019-03-31T08:57:50.209Z,57.00
2019-03-31T09:00:28.976Z,54.30
2019-03-31T09:02:58.796Z,54.30
2019-03-31T09:05:28.287Z,49.87
2019-03-31T09:07:57.744Z,52.90
2019-03-31T09:10:27.006Z,51.77
2019-03-31T09:12:57.148Z,49.23
2019-03-31T09:15:26.628Z,52.77
2019-03-31T09:18:00.232Z,48.37
2019-03-31T09:20:29.737Z,56.60
2019-03-31T09:22:59.241Z,55.87
2019-03-31T09:25:28.540Z,54.47
2019-03-31T09:27:57.851Z,54.07
2019-03-31T09:30:27.370Z,57.63
2019-03-31T09:32:56.849Z,57.67
2019-03-31T09:35:26.162Z,54.13
2019-03-31T09:37:55.658Z,53.40
2019-03-31T09:40:25.073Z,50.53
2019-03-31T09:42:54.279Z,58.50
2019-03-31T09:45:23.574Z,54.30
2019-03-31T09:47:52.990Z,61.60
2019-03-31T09:50:22.574Z,55.03
2019-03-31T09:52:53.525Z,55.63
2019-03-31T09:55:23.237Z,54.63
2019-03-31T09:57:52.850Z,53.40
2019-03-31T10:00:50.045Z,52.37
2019-03-31T10:03:24.740Z,57.27
2019-03-31T10:05:54.225Z,49.63
2019-03-31T10:08:23.836Z,54.03
2019-03-31T10:10:53.453Z,47.40
2019-03-31T10:13:23.055Z,54.27
2019-03-31T10:15:52.568Z,51.00
2019-03-31T10:18:22.494Z,50.17
2019-03-31T10:20:51.919Z,47.23
2019-03-31T10:23:21.292Z,52.87
2019-03-31T10:25:51.315Z,46.47
2019-03-31T10:28:20.848Z,47.13
2019-03-31T10:30:50.520Z,44.90
2019-03-31T10:33:20.062Z,42.73
2019-03-31T10:35:55.650Z,46.20
2019-03-31T10:38:25.187Z,45.83
2019-03-31T10:40:54.694Z,49.80
2019-03-31T10:43:23.962Z,41.77
2019-03-31T10:45:53.510Z,50.07
2019-03-31T10:48:23.010Z,48.70
2019-03-31T10:50:52.509Z,43.23
2019-03-31T10:53:21.822Z,50.53
2019-03-31T10:55:51.320Z,48.43
2019-03-31T10:58:20.826Z,50.30
2019-03-31T11:00:50.135Z,47.43
2019-03-31T11:03:19.739Z,46.83
2019-03-31T11:05:49.243Z,47.37
2019-03-31T11:08:18.655Z,46.80
2019-03-31T11:10:48.155Z,47.03
2019-03-31T11:13:17.569Z,48.40
2019-03-31T11:15:47.069Z,51.37
2019-03-31T11:18:16.476Z,51.73
2019-03-31T11:20:45.793Z,50.93
2019-03-31T11:23:25.929Z,51.13
2019-03-31T11:25:55.336Z,48.20
2019-03-31T11:28:24.739Z,46.57
2019-03-31T11:30:56.469Z,43.20
2019-03-31T11:33:26.002Z,42.77
2019-03-31T11:35:55.307Z,47.23
2019-03-31T11:38:27.198Z,42.47
2019-03-31T11:40:56.893Z,47.90
2019-03-31T11:43:26.282Z,44.33
2019-03-31T11:45:55.601Z,37.07
2019-03-31T11:48:24.888Z,43.07
2019-03-31T11:50:54.604Z,34.33
2019-03-31T11:53:24.200Z,39.63
2019-03-31T11:55:53.609Z,40.63
2019-03-31T11:58:23.334Z,34.87
2019-03-31T12:00:54.556Z,35.17
2019-03-31T12:03:24.200Z,32.97
2019-03-31T12:05:53.788Z,32.47
2019-03-31T12:08:23.301Z,32.53
2019-03-31T12:10:53.098Z,35.83
2019-03-31T12:13:22.616Z,32.17
2019-03-31T12:15:53.559Z,30.27
2019-03-31T12:18:23.055Z,28.63
2019-03-31T12:20:52.465Z,29.03
2019-03-31T12:23:22.105Z,29.73
2019-03-31T12:25:53.334Z,29.10
2019-03-31T12:28:23.029Z,32.53
2019-03-31T12:30:52.437Z,28.93
2019-03-31T12:33:21.940Z,29.93
2019-03-31T12:35:51.545Z,29.17
2019-03-31T12:38:21.052Z,26.50
2019-03-31T12:40:57.532Z,21.03
2019-03-31T12:43:27.039Z,22.50
2019-03-31T12:45:56.643Z,22.90
2019-03-31T12:48:26.140Z,22.13
2019-03-31T12:50:55.548Z,22.33
2019-03-31T12:53:24.850Z,21.17
2019-03-31T12:56:00.319Z,19.00
2019-03-31T12:58:25.599Z,19.30
2019-03-31T13:00:55.008Z,17.60
2019-03-31T13:03:32.293Z,19.33
2019-03-31T13:06:01.797Z,20.20
2019-03-31T13:08:31.207Z,17.07
2019-03-31T13:11:00.918Z,16.53
2019-03-31T13:13:30.461Z,17.13
2019-03-31T13:15:59.828Z,21.90
2019-03-31T13:18:29.130Z,20.77
2019-03-31T13:20:58.739Z,19.33
2019-03-31T13:23:28.043Z,17.97
2019-03-31T13:25:57.343Z,19.47
2019-03-31T13:28:27.147Z,21.47
2019-03-31T13:30:56.650Z,17.43
2019-03-31T13:33:26.065Z,18.17
2019-03-31T13:35:55.275Z,18.03
2019-03-31T13:38:24.762Z,17.67
2019-03-31T13:40:54.379Z,14.50
2019-03-31T13:43:23.783Z,24.93
2019-03-31T13:45:53.362Z,15.93
2019-03-31T13:48:22.885Z,17.50
2019-03-31T13:50:52.402Z,21.90
2019-03-31T13:53:21.711Z,22.27
2019-03-31T13:55:51.320Z,21.40
2019-03-31T13:58:22.945Z,17.97
2019-03-31T14:00:52.064Z,18.97
2019-03-31T14:03:21.476Z,21.37
2019-03-31T14:05:51.184Z,17.67
2019-03-31T14:08:26.011Z,19.60
2019-03-31T14:10:51.642Z,19.07
2019-03-31T14:13:21.134Z,19.07
2019-03-31T14:15:50.456Z,16.57
2019-03-31T14:18:19.934Z,17.40
2019-03-31T14:20:49.141Z,17.37
2019-03-31T14:23:18.352Z,14.90
2019-03-31T14:25:47.647Z,19.10
2019-03-31T14:28:17.053Z,17.87
2019-03-31T14:30:46.654Z,16.67
2019-03-31T14:33:16.163Z,15.90
2019-03-31T14:35:45.677Z,16.87
2019-03-31T14:38:15.306Z,14.27
2019-03-31T14:40:44.909Z,17.80
2019-03-31T14:43:14.488Z,13.63
2019-03-31T14:45:44.005Z,14.57
2019-03-31T14:48:14.130Z,12.67
2019-03-31T14:50:43.428Z,11.57
2019-03-31T14:53:21.945Z,14.17
2019-03-31T14:55:51.244Z,13.30
2019-03-31T14:58:20.659Z,12.30
2019-03-31T15:00:50.130Z,13.37
2019-03-31T15:03:19.458Z,12.53
2019-03-31T15:05:48.863Z,16.77
2019-03-31T15:08:18.384Z,12.83
2019-03-31T15:10:47.883Z,12.53
2019-03-31T15:13:17.380Z,11.57
2019-03-31T15:15:46.874Z,14.67
2019-03-31T15:18:17.839Z,11.57
2019-03-31T15:20:47.037Z,9.67
2019-03-31T15:23:16.534Z,11.93
2019-03-31T15:25:48.497Z,9.87
2019-03-31T15:28:18.399Z,8.43
2019-03-31T15:30:48.128Z,8.77
2019-03-31T15:33:17.628Z,8.63
2019-03-31T15:35:47.129Z,7.03
2019-03-31T15:38:18.009Z,7.07
2019-03-31T15:40:48.593Z,7.47
2019-03-31T15:43:20.364Z,7.47
2019-03-31T15:45:49.669Z,6.80
2019-03-31T15:48:18.811Z,6.57
2019-03-31T15:50:48.036Z,7.70
2019-03-31T15:53:17.262Z,5.50
2019-03-31T15:55:46.617Z,9.57
2019-03-31T15:58:16.074Z,7.87
2019-03-31T16:00:45.373Z,5.77
2019-03-31T16:03:14.575Z,6.37
2019-03-31T16:05:44.069Z,6.77
2019-03-31T16:08:13.473Z,6.97
2019-03-31T16:10:42.786Z,6.83
2019-03-31T16:13:12.393Z,5.73
2019-03-31T16:15:42.045Z,7.10
2019-03-31T16:18:11.713Z,8.60
2019-03-31T16:20:41.121Z,7.27
2019-03-31T16:23:10.640Z,10.17
2019-03-31T16:25:42.067Z,5.53
2019-03-31T16:28:11.479Z,7.13
2019-03-31T16:30:40.974Z,7.07
2019-03-31T16:33:10.547Z,8.70
2019-03-31T16:35:40.010Z,6.90
2019-03-31T16:38:09.520Z,6.00
2019-03-31T16:40:39.058Z,8.97
2019-03-31T16:43:08.562Z,7.27
2019-03-31T16:45:37.747Z,5.87
2019-03-31T16:48:07.177Z,8.50
2019-03-31T16:50:36.753Z,8.90
2019-03-31T16:53:06.768Z,6.30
2019-03-31T16:55:36.139Z,10.10
2019-03-31T16:58:05.614Z,6.10
2019-03-31T17:00:35.005Z,10.27
2019-03-31T17:03:04.337Z,11.03
2019-03-31T17:05:33.546Z,8.27
2019-03-31T17:08:04.193Z,8.37
2019-03-31T17:10:33.638Z,9.13
2019-03-31T17:13:03.097Z,12.03
2019-03-31T17:15:32.333Z,9.97
2019-03-31T17:18:01.752Z,10.53
2019-03-31T17:20:30.923Z,10.90
2019-03-31T17:23:00.097Z,8.17
2019-03-31T17:25:29.928Z,9.90
2019-03-31T17:27:59.432Z,10.00
2019-03-31T17:30:28.629Z,8.37
2019-03-31T17:32:58.074Z,7.03
2019-03-31T17:35:27.489Z,8.90
2019-03-31T17:37:56.675Z,6.87
2019-03-31T17:40:26.062Z,9.70
2019-03-31T17:42:55.583Z,6.93
2019-03-31T17:45:24.669Z,10.20
2019-03-31T17:47:53.781Z,9.53
2019-03-31T17:50:22.901Z,11.07
2019-03-31T17:52:52.260Z,10.03
2019-03-31T17:55:21.343Z,11.73
2019-03-31T17:57:50.737Z,12.37
2019-03-31T18:00:19.959Z,10.20
2019-03-31T18:02:49.105Z,11.20
2019-03-31T18:05:18.434Z,9.97
2019-03-31T18:07:47.533Z,10.10
2019-03-31T18:10:21.296Z,11.47
2019-03-31T18:12:47.833Z,8.57
2019-03-31T18:15:17.245Z,9.57
2019-03-31T18:17:46.643Z,10.60
2019-03-31T18:20:15.768Z,9.80
2019-03-31T18:22:44.872Z,12.17
2019-03-31T18:25:13.973Z,10.30
2019-03-31T18:27:43.379Z,11.17
2019-03-31T18:30:12.671Z,14.70
2019-03-31T18:32:41.810Z,9.53
2019-03-31T18:35:11.419Z,12.47
2019-03-31T18:37:40.540Z,10.77
2019-03-31T18:40:09.726Z,11.90
2019-03-31T18:42:39.102Z,10.53
2019-03-31T18:45:08.458Z,10.10
2019-03-31T18:47:37.595Z,13.03
2019-03-31T18:50:06.969Z,12.47
2019-03-31T18:52:36.331Z,10.60
2019-03-31T18:55:08.855Z,12.33
2019-03-31T18:57:39.828Z,12.37
2019-03-31T19:00:16.243Z,12.17
2019-03-31T19:02:49.771Z,11.90
2019-03-31T19:05:20.666Z,10.63
2019-03-31T19:08:00.345Z,11.73
2019-03-31T19:10:49.632Z,12.33
2019-03-31T19:13:22.141Z,12.93
2019-03-31T19:15:55.686Z,11.27
2019-03-31T19:18:44.274Z,14.17
2019-03-31T19:23:47.469Z,12.03
2019-03-31T19:26:18.527Z,12.40
2019-03-31T19:28:49.667Z,12.20
2019-03-31T19:31:20.737Z,14.90
2019-03-31T19:34:06.996Z,14.07
2019-03-31T19:36:46.613Z,9.40
2019-03-31T19:39:33.373Z,11.13
2019-03-31T19:42:06.851Z,12.93
2019-03-31T19:44:50.032Z,8.07
2019-03-31T19:47:29.494Z,13.37
2019-03-31T19:50:00.566Z,9.13
2019-03-31T19:52:40.208Z,12.07
2019-03-31T19:55:11.446Z,12.57
2019-03-31T19:57:58.268Z,9.40
2019-03-31T20:00:35.076Z,6.97
2019-03-31T20:03:23.898Z,5.50
2019-03-31T20:06:00.712Z,8.63
2019-03-31T20:08:34.340Z,11.90
2019-03-31T20:11:05.389Z,12.47
2019-03-31T20:13:54.623Z,9.00
2019-03-31T20:16:28.439Z,9.60
2019-03-31T20:18:59.467Z,9.10
2019-03-31T20:21:33.119Z,8.13
2019-03-31T20:24:06.894Z,9.47
2019-03-31T20:26:53.091Z,9.60
2019-03-31T20:29:29.865Z,6.77
2019-03-31T20:32:09.970Z,9.07
2019-03-31T20:34:43.671Z,7.97
2019-03-31T20:37:22.963Z,6.53
2019-03-31T20:40:09.166Z,6.70
2019-03-31T20:42:56.577Z,5.13
2019-03-31T20:45:25.725Z,5.97
2019-03-31T20:47:54.974Z,4.53
2019-03-31T20:50:24.379Z,7.07
2019-03-31T20:52:54.127Z,4.70
2019-03-31T20:55:23.313Z,4.37
2019-03-31T20:57:52.812Z,8.13
2019-03-31T21:00:22.294Z,6.37
2019-03-31T21:02:51.497Z,5.90
2019-03-31T21:05:20.994Z,7.07
2019-03-31T21:07:50.400Z,6.43
2019-03-31T21:10:19.575Z,4.20
2019-03-31T21:12:49.017Z,6.07
2019-03-31T21:15:18.161Z,8.93
2019-03-31T21:17:47.338Z,4.93
2019-03-31T21:20:16.725Z,5.93
2019-03-31T21:22:45.896Z,8.87
2019-03-31T21:25:15.301Z,6.73
2019-03-31T21:27:45.084Z,4.07
2019-03-31T21:30:14.810Z,4.60
2019-03-31T21:32:44.083Z,2.80
2019-03-31T21:35:13.632Z,6.17
2019-03-31T21:37:43.093Z,4.87
2019-03-31T21:40:12.645Z,3.87
2019-03-31T21:42:42.390Z,5.10
2019-03-31T21:45:11.609Z,4.90
2019-03-31T21:47:40.767Z,4.97
2019-03-31T21:50:10.289Z,5.67
2019-03-31T21:52:39.714Z,2.97
2019-03-31T21:55:09.345Z,2.47
2019-03-31T21:57:38.503Z,6.07
2019-03-31T22:00:11.065Z,3.40
2019-03-31T22:02:40.620Z,4.17
2019-03-31T22:05:10.315Z,5.23
2019-03-31T22:07:39.703Z,5.87
2019-03-31T22:10:09.178Z,7.13
2019-03-31T22:12:38.321Z,4.13
2019-03-31T22:15:07.716Z,4.43
2019-03-31T22:17:36.896Z,5.27
2019-03-31T22:20:08.156Z,6.03
2019-03-31T22:22:37.350Z,6.47
2019-03-31T22:25:07.731Z,3.57
2019-03-31T22:27:37.142Z,5.27
2019-03-31T22:30:09.472Z,5.53
2019-03-31T22:32:38.937Z,3.97
2019-03-31T22:35:08.288Z,3.03
2019-03-31T22:37:37.368Z,5.60
2019-03-31T22:40:07.603Z,3.20
2019-03-31T22:42:37.031Z,5.93
2019-03-31T22:45:06.465Z,5.37
2019-03-31T22:47:35.819Z,5.77
2019-03-31T22:50:06.101Z,5.70
2019-03-31T22:52:35.422Z,5.40
2019-03-31T22:55:06.813Z,4.13
2019-03-31T22:57:35.924Z,2.83
2019-03-31T23:00:06.285Z,6.13
2019-03-31T23:02:35.376Z,7.03
2019-03-31T23:05:04.746Z,4.00
2019-03-31T23:07:33.827Z,5.47
2019-03-31T23:10:03.289Z,2.63
2019-03-31T23:12:32.619Z,8.30
2019-03-31T23:15:01.975Z,8.20
2019-03-31T23:17:31.331Z,4.20
2019-03-31T23:20:00.723Z,4.87
2019-03-31T23:22:29.812Z,6.07
2019-03-31T23:24:59.145Z,5.50
2019-03-31T23:27:28.501Z,8.70
2019-03-31T23:29:57.833Z,5.80
2019-03-31T23:32:27.285Z,2.93
2019-03-31T23:34:56.640Z,5.90
2019-03-31T23:37:25.990Z,6.80
2019-03-31T23:39:55.323Z,5.00
2019-03-31T23:42:24.450Z,5.73
2019-03-31T23:44:53.531Z,7.63
2019-03-31T23:47:22.639Z,8.17
2019-03-31T23:49:51.722Z,3.87
2019-03-31T23:52:20.854Z,4.47
2019-03-31T23:54:49.927Z,7.77
2019-03-31T23:57:20.703Z,4.53
2019-03-31T23:59:50.028Z,6.03
